createdAt,value
2019-03-23T00:00:52.653Z,8.80
2019-03-23T00:03:33.610Z,8.60
2019-03-23T00:06:13.994Z,8.60
2019-03-23T00:08:55.140Z,8.60
2019-03-23T00:11:36.300Z,8.60
2019-03-23T00:14:17.054Z,8.60
2019-03-23T00:16:57.847Z,8.60
2019-03-23T00:19:38.973Z,8.60
2019-03-23T00:22:19.780Z,8.60
2019-03-23T00:25:00.894Z,8.50
2019-03-23T00:27:41.994Z,8.40
2019-03-23T00:30:22.722Z,8.40
2019-03-23T00:33:03.501Z,8.40
2019-03-23T00:35:44.471Z,8.40
2019-03-23T00:38:25.290Z,8.40
2019-03-23T00:41:05.990Z,8.40
2019-03-23T00:43:47.465Z,8.40
2019-03-23T00:46:28.779Z,8.40
2019-03-23T00:49:09.604Z,8.40
2019-03-23T00:51:50.363Z,8.30
2019-03-23T00:54:31.029Z,8.30
2019-03-23T00:57:11.542Z,8.30
2019-03-23T00:59:52.274Z,8.30
2019-03-23T01:02:33.083Z,8.20
2019-03-23T01:07:56.746Z,8.20
2019-03-23T01:10:37.658Z,8.10
2019-03-23T01:13:18.274Z,8.10
2019-03-23T01:15:59.107Z,8.10
2019-03-23T01:18:39.978Z,8.10
2019-03-23T01:21:20.515Z,8.00
2019-03-23T01:24:01.588Z,8.00
2019-03-23T01:26:42.156Z,8.00
2019-03-23T01:29:22.821Z,8.00
2019-03-23T01:32:03.524Z,7.90
2019-03-23T01:34:43.903Z,7.90
2019-03-23T01:37:24.629Z,7.80
2019-03-23T01:40:05.135Z,7.70
2019-03-23T01:42:46.134Z,7.70
2019-03-23T01:48:08.760Z,7.70
2019-03-23T01:50:49.388Z,7.70
2019-03-23T01:53:30.501Z,7.70
2019-03-23T01:56:11.211Z,7.70
2019-03-23T01:58:51.785Z,7.70
2019-03-23T02:01:33.062Z,7.70
2019-03-23T02:04:14.011Z,7.70
2019-03-23T02:06:54.689Z,7.70
2019-03-23T02:12:20.436Z,7.60
2019-03-23T02:15:01.310Z,7.50
2019-03-23T02:17:42.052Z,7.50
2019-03-23T02:20:22.901Z,7.50
2019-03-23T02:23:04.009Z,7.50
2019-03-23T02:25:45.264Z,7.50
2019-03-23T02:28:26.248Z,7.50
2019-03-23T02:31:07.642Z,7.50
2019-03-23T02:33:49.207Z,7.40
2019-03-23T02:36:30.733Z,7.40
2019-03-23T02:39:11.189Z,7.40
2019-03-23T02:41:52.070Z,7.40
2019-03-23T02:44:32.809Z,7.30
2019-03-23T02:47:13.294Z,7.20
2019-03-23T02:52:36.973Z,7.10
2019-03-23T02:55:18.098Z,7.00
2019-03-23T02:57:58.741Z,7.00
2019-03-23T03:03:22.928Z,7.00
2019-03-23T03:06:04.087Z,7.00
2019-03-23T03:08:44.562Z,7.00
2019-03-23T03:11:24.857Z,7.00
2019-03-23T03:14:05.933Z,7.00
2019-03-23T03:16:46.639Z,6.90
2019-03-23T03:19:27.972Z,7.00
2019-03-23T03:22:09.250Z,7.00
2019-03-23T03:27:37.979Z,7.00
2019-03-23T03:30:18.949Z,7.00
2019-03-23T03:33:00.084Z,7.10
2019-03-23T03:35:40.949Z,7.00
2019-03-23T03:38:21.458Z,7.00
2019-03-23T03:41:02.300Z,7.10
2019-03-23T03:43:43.032Z,7.10
2019-03-23T03:46:24.225Z,7.00
2019-03-23T03:49:12.223Z,7.00
2019-03-23T03:51:47.733Z,7.00
2019-03-23T03:54:28.451Z,6.90
2019-03-23T03:57:09.205Z,6.80
2019-03-23T04:02:39.393Z,6.80
2019-03-23T04:05:20.571Z,6.70
2019-03-23T04:08:11.237Z,6.80
2019-03-23T04:10:43.747Z,6.90
2019-03-23T04:13:24.405Z,6.80
2019-03-23T04:16:05.120Z,6.70
2019-03-23T04:18:45.902Z,6.60
2019-03-23T04:21:27.110Z,6.50
2019-03-23T04:24:07.831Z,6.50
2019-03-23T04:29:31.961Z,6.70
2019-03-23T04:32:13.073Z,6.80
2019-03-23T04:34:53.794Z,7.00
2019-03-23T04:37:34.553Z,7.20
2019-03-23T04:43:00.349Z,7.60
2019-03-23T04:45:40.989Z,7.90
2019-03-23T04:48:21.734Z,8.00
2019-03-23T04:51:02.412Z,8.10
2019-03-23T04:53:43.165Z,8.20
2019-03-23T04:56:24.267Z,8.40
2019-03-23T04:59:05.066Z,8.40
2019-03-23T05:01:45.800Z,8.20
2019-03-23T05:04:27.214Z,8.00
2019-03-23T05:07:08.057Z,8.00
2019-03-23T05:09:48.797Z,8.00
2019-03-23T05:12:29.872Z,7.80
2019-03-23T05:17:56.510Z,7.80
2019-03-23T05:20:37.217Z,7.60
2019-03-23T05:23:18.407Z,7.50
2019-03-23T05:25:58.926Z,7.50
2019-03-23T05:28:39.698Z,7.40
2019-03-23T05:31:20.486Z,7.40
2019-03-23T05:34:01.252Z,7.40
2019-03-23T05:36:42.998Z,7.50
2019-03-23T05:39:24.084Z,7.50
2019-03-23T05:42:05.346Z,7.40
2019-03-23T05:44:46.197Z,7.20
2019-03-23T05:47:27.007Z,7.20
2019-03-23T05:52:50.588Z,7.10
2019-03-23T05:55:31.604Z,7.20
2019-03-23T05:58:12.888Z,7.20
2019-03-23T06:00:53.540Z,7.20
2019-03-23T06:03:34.171Z,7.30
2019-03-23T06:09:04.769Z,7.60
2019-03-23T06:11:45.800Z,7.60
2019-03-23T06:14:27.179Z,7.70
2019-03-23T06:17:08.137Z,7.80
2019-03-23T06:19:49.059Z,8.00
2019-03-23T06:22:30.606Z,8.00
2019-03-23T06:27:58.852Z,8.10
2019-03-23T06:30:39.810Z,8.30
2019-03-23T06:33:20.524Z,8.40
2019-03-23T06:36:01.067Z,8.60
2019-03-23T06:38:42.429Z,8.80
2019-03-23T06:41:23.211Z,9.00
2019-03-23T06:44:03.714Z,9.10
2019-03-23T06:46:44.269Z,9.20
2019-03-23T06:49:25.231Z,9.40
2019-03-23T06:52:05.894Z,9.50
2019-03-23T06:54:46.829Z,9.70
2019-03-23T06:57:27.665Z,10.00
2019-03-23T07:00:08.748Z,10.30
2019-03-23T07:02:50.580Z,10.50
2019-03-23T07:05:32.018Z,10.70
2019-03-23T07:08:12.490Z,10.90
2019-03-23T07:13:42.291Z,11.30
2019-03-23T07:19:12.556Z,11.60
2019-03-23T07:24:41.388Z,11.90
2019-03-23T07:30:06.149Z,12.20
2019-03-23T07:32:47.321Z,12.40
2019-03-23T07:35:29.479Z,12.40
2019-03-23T07:38:10.337Z,12.50
2019-03-23T07:40:50.968Z,12.50
2019-03-23T07:43:31.695Z,12.60
2019-03-23T07:48:55.397Z,12.70
2019-03-23T07:54:25.235Z,12.90
2019-03-23T07:57:05.680Z,13.00
2019-03-23T07:59:46.802Z,12.90
2019-03-23T08:02:27.897Z,13.10
2019-03-23T08:05:08.756Z,13.10
2019-03-23T08:07:49.571Z,13.10
2019-03-23T08:10:30.744Z,13.10
2019-03-23T08:13:11.741Z,13.10
2019-03-23T08:15:52.674Z,13.30
2019-03-23T08:21:22.464Z,13.50
2019-03-23T08:24:03.120Z,13.60
2019-03-23T08:26:44.580Z,13.60
2019-03-23T08:29:25.047Z,13.60
2019-03-23T08:34:53.259Z,13.80
2019-03-23T08:40:17.759Z,13.90
2019-03-23T08:42:58.966Z,13.70
2019-03-23T08:45:39.943Z,13.80
2019-03-23T08:48:21.224Z,13.60
2019-03-23T08:51:02.399Z,13.30
2019-03-23T08:56:32.921Z,12.60
2019-03-23T08:59:14.071Z,12.60
2019-03-23T09:04:43.575Z,12.40
2019-03-23T09:07:24.727Z,12.40
2019-03-23T09:10:06.341Z,12.40
2019-03-23T09:12:47.430Z,12.30
2019-03-23T09:15:28.128Z,12.30
2019-03-23T09:18:09.273Z,12.20
2019-03-23T09:20:49.861Z,12.10
2019-03-23T09:23:30.824Z,12.00
2019-03-23T09:26:13.735Z,12.00
2019-03-23T09:31:44.352Z,11.70
2019-03-23T09:37:09.958Z,11.70
2019-03-23T09:39:51.047Z,11.70
2019-03-23T09:42:32.391Z,11.60
2019-03-23T09:45:14.505Z,11.60
2019-03-23T09:50:41.834Z,11.80
2019-03-23T09:56:08.670Z,11.80
2019-03-23T10:01:37.008Z,11.70
2019-03-23T10:04:17.462Z,11.70
2019-03-23T10:07:00.138Z,11.70
2019-03-23T10:12:25.878Z,11.60
2019-03-23T10:15:06.931Z,11.50
2019-03-23T10:17:47.964Z,11.40
2019-03-23T10:20:28.564Z,11.40
2019-03-23T10:25:54.267Z,11.50
2019-03-23T10:31:20.986Z,11.60
2019-03-23T10:34:02.369Z,11.40
2019-03-23T10:36:43.609Z,11.50
2019-03-23T10:42:11.255Z,11.50
2019-03-23T10:50:23.905Z,11.40
2019-03-23T10:53:05.300Z,11.30
2019-03-23T10:55:45.884Z,11.20
2019-03-23T11:01:10.100Z,10.90
2019-03-23T11:03:51.158Z,11.00
2019-03-23T11:06:32.141Z,11.00
2019-03-23T11:09:13.495Z,10.90
2019-03-23T11:11:54.077Z,10.90
2019-03-23T11:14:34.803Z,11.00
2019-03-23T11:17:15.576Z,10.90
2019-03-23T11:19:58.401Z,10.90
2019-03-23T11:22:39.292Z,11.00
2019-03-23T11:28:03.104Z,11.00
2019-03-23T11:30:44.194Z,11.00
2019-03-23T11:33:25.292Z,11.00
2019-03-23T11:36:06.255Z,11.10
2019-03-23T11:38:47.597Z,11.20
2019-03-23T11:41:28.515Z,11.20
2019-03-23T11:44:09.609Z,11.20
2019-03-23T11:46:50.185Z,11.20
2019-03-23T11:49:31.471Z,11.30
2019-03-23T11:52:12.244Z,11.20
2019-03-23T11:54:52.828Z,11.10
2019-03-23T11:57:33.528Z,11.00
2019-03-23T12:00:14.321Z,10.90
2019-03-23T12:02:55.237Z,10.90
2019-03-23T12:08:19.396Z,10.90
2019-03-23T12:11:03.038Z,10.80
2019-03-23T12:13:42.700Z,10.80
2019-03-23T12:16:23.810Z,10.80
2019-03-23T12:19:04.284Z,10.80
2019-03-23T12:21:45.389Z,10.80
2019-03-23T12:24:26.061Z,10.80
2019-03-23T12:27:06.805Z,10.90
2019-03-23T12:29:47.808Z,10.90
2019-03-23T12:32:28.990Z,10.90
2019-03-23T12:37:52.337Z,11.00
2019-03-23T12:40:33.612Z,11.00
2019-03-23T12:43:14.551Z,10.90
2019-03-23T12:45:55.508Z,11.00
2019-03-23T12:48:36.248Z,11.10
2019-03-23T12:54:02.356Z,11.10
2019-03-23T12:56:43.526Z,11.10
2019-03-23T13:02:07.119Z,11.40
2019-03-23T13:04:47.854Z,11.40
2019-03-23T13:07:29.125Z,11.50
2019-03-23T13:10:09.479Z,11.50
2019-03-23T13:12:50.618Z,11.40
2019-03-23T13:15:31.827Z,11.40
2019-03-23T13:18:12.869Z,11.40
2019-03-23T13:20:53.748Z,11.40
2019-03-23T13:23:34.746Z,11.50
2019-03-23T13:26:15.528Z,11.50
2019-03-23T13:28:56.154Z,11.40
2019-03-23T13:31:36.866Z,11.40
2019-03-23T13:34:17.581Z,11.30
2019-03-23T13:36:58.552Z,11.40
2019-03-23T13:39:39.330Z,11.40
2019-03-23T13:42:20.146Z,11.50
2019-03-23T13:45:01.009Z,11.50
2019-03-23T13:47:41.856Z,11.50
2019-03-23T13:50:22.731Z,11.40
2019-03-23T13:53:03.342Z,11.40
2019-03-23T13:55:44.184Z,11.60
2019-03-23T13:58:25.172Z,11.80
2019-03-23T14:01:06.160Z,11.80
2019-03-23T14:03:47.306Z,11.90
2019-03-23T14:06:27.684Z,11.90
2019-03-23T14:09:08.331Z,11.90
2019-03-23T14:11:54.995Z,11.90
2019-03-23T14:14:31.920Z,12.00
2019-03-23T14:17:12.885Z,12.10
2019-03-23T14:19:53.600Z,12.20
2019-03-23T14:22:34.304Z,12.20
2019-03-23T14:25:15.377Z,12.10
2019-03-23T14:27:56.488Z,12.20
2019-03-23T14:30:37.556Z,12.30
2019-03-23T14:33:19.036Z,12.50
2019-03-23T14:36:00.213Z,12.50
2019-03-23T14:38:40.839Z,12.60
2019-03-23T14:41:21.338Z,12.60
2019-03-23T14:44:02.133Z,12.80
2019-03-23T14:46:43.322Z,12.90
2019-03-23T14:49:24.953Z,13.00
2019-03-23T14:52:05.591Z,13.00
2019-03-23T14:54:47.163Z,13.00
2019-03-23T14:57:27.550Z,12.90
2019-03-23T15:00:08.004Z,12.90
2019-03-23T15:02:48.832Z,13.10
2019-03-23T15:05:29.389Z,13.20
2019-03-23T15:10:54.038Z,13.40
2019-03-23T15:13:36.550Z,13.60
2019-03-23T15:19:07.168Z,13.40
2019-03-23T15:24:34.473Z,13.20
2019-03-23T15:27:15.244Z,13.10
2019-03-23T15:29:56.425Z,13.40
2019-03-23T15:32:37.425Z,13.60
2019-03-23T15:35:18.444Z,13.40
2019-03-23T15:40:44.371Z,13.40
2019-03-23T15:43:25.311Z,13.50
2019-03-23T15:46:06.318Z,13.30
2019-03-23T15:48:47.016Z,13.00
2019-03-23T15:51:28.198Z,13.10
2019-03-23T15:54:09.045Z,13.10
2019-03-23T15:56:50.082Z,13.20
2019-03-23T15:59:31.725Z,13.20
2019-03-23T16:02:12.636Z,13.30
2019-03-23T16:04:53.692Z,13.30
2019-03-23T16:07:34.186Z,13.00
2019-03-23T16:10:14.804Z,13.00
2019-03-23T16:12:55.460Z,13.20
2019-03-23T16:15:36.014Z,13.30
2019-03-23T16:18:17.301Z,13.20
2019-03-23T16:20:57.779Z,13.30
2019-03-23T16:23:38.190Z,13.30
2019-03-23T16:26:18.781Z,13.30
2019-03-23T16:28:59.251Z,13.20
2019-03-23T16:31:39.770Z,13.20
2019-03-23T16:34:20.454Z,13.20
2019-03-23T16:37:01.036Z,13.30
2019-03-23T16:39:41.489Z,13.30
2019-03-23T16:42:22.352Z,13.30
2019-03-23T16:45:03.843Z,13.30
2019-03-23T16:47:44.302Z,13.30
2019-03-23T16:50:25.372Z,13.20
2019-03-23T16:53:06.234Z,13.20
2019-03-23T16:55:47.356Z,13.10
2019-03-23T16:58:28.567Z,13.10
2019-03-23T17:01:09.098Z,13.00
2019-03-23T17:03:49.512Z,12.90
2019-03-23T17:06:30.443Z,12.90
2019-03-23T17:09:11.148Z,13.00
2019-03-23T17:11:52.810Z,12.90
2019-03-23T17:14:33.709Z,12.90
2019-03-23T17:17:14.501Z,12.80
2019-03-23T17:22:40.209Z,12.90
2019-03-23T17:25:21.029Z,13.00
2019-03-23T17:28:01.348Z,12.90
2019-03-23T17:30:42.321Z,12.80
2019-03-23T17:33:22.922Z,12.80
2019-03-23T17:36:03.665Z,12.70
2019-03-23T17:41:27.725Z,12.70
2019-03-23T17:44:08.342Z,12.70
2019-03-23T17:46:48.871Z,12.80
2019-03-23T17:49:29.534Z,12.80
2019-03-23T17:52:10.320Z,12.80
2019-03-23T17:54:51.486Z,12.70
2019-03-23T17:57:31.990Z,12.70
2019-03-23T18:00:12.772Z,12.80
2019-03-23T18:02:54.031Z,12.70
2019-03-23T18:05:34.835Z,12.70
2019-03-23T18:11:00.776Z,12.70
2019-03-23T18:13:41.678Z,12.70
2019-03-23T18:16:22.778Z,12.80
2019-03-23T18:21:46.765Z,12.80
2019-03-23T18:24:28.040Z,12.80
2019-03-23T18:27:08.653Z,12.90
2019-03-23T18:29:49.406Z,12.80
2019-03-23T18:32:30.660Z,12.80
2019-03-23T18:35:11.648Z,12.70
2019-03-23T18:37:52.266Z,12.60
2019-03-23T18:40:33.024Z,12.60
2019-03-23T18:43:13.669Z,12.60
2019-03-23T18:45:54.465Z,12.60
2019-03-23T18:48:35.192Z,12.60
2019-03-23T18:51:16.049Z,12.60
2019-03-23T18:53:56.953Z,12.70
2019-03-23T18:56:37.451Z,12.70
2019-03-23T18:59:18.163Z,12.70
2019-03-23T19:01:59.196Z,12.70
2019-03-23T19:04:40.454Z,12.70
2019-03-23T19:07:21.170Z,12.70
2019-03-23T19:10:02.656Z,12.70
2019-03-23T19:12:43.942Z,12.70
2019-03-23T19:15:24.827Z,12.70
2019-03-23T19:18:06.086Z,12.70
2019-03-23T19:20:47.308Z,12.70
2019-03-23T19:23:27.828Z,12.70
2019-03-23T19:26:08.591Z,12.70
2019-03-23T19:28:49.609Z,12.70
2019-03-23T19:34:15.283Z,12.70
2019-03-23T19:36:55.997Z,12.60
2019-03-23T19:39:36.428Z,12.70
2019-03-23T19:42:17.255Z,12.60
2019-03-23T19:44:58.105Z,12.60
2019-03-23T19:47:39.093Z,12.60
2019-03-23T19:53:09.301Z,12.70
2019-03-23T19:55:50.048Z,12.60
2019-03-23T19:58:30.862Z,12.60
2019-03-23T20:01:12.460Z,12.60
2019-03-23T20:03:52.860Z,12.50
2019-03-23T20:06:33.620Z,12.10
2019-03-23T20:09:14.496Z,11.80
2019-03-23T20:11:55.622Z,11.60
2019-03-23T20:14:36.494Z,11.40
2019-03-23T20:17:17.100Z,11.30
2019-03-23T20:19:57.980Z,11.20
2019-03-23T20:22:39.075Z,11.10
2019-03-23T20:25:19.581Z,11.10
2019-03-23T20:28:00.059Z,11.10
2019-03-23T20:30:40.776Z,11.00
2019-03-23T20:33:21.553Z,11.00
2019-03-23T20:36:02.206Z,10.80
2019-03-23T20:38:42.765Z,10.80
2019-03-23T20:41:23.433Z,10.90
2019-03-23T20:44:09.327Z,10.80
2019-03-23T20:49:31.467Z,10.80
2019-03-23T20:52:12.570Z,10.70
2019-03-23T20:54:53.435Z,10.70
2019-03-23T20:57:37.579Z,10.60
2019-03-23T21:00:16.799Z,10.70
2019-03-23T21:02:58.024Z,10.70
2019-03-23T21:05:33.659Z,10.70
2019-03-23T21:07:58.686Z,10.70
2019-03-23T21:10:46.961Z,10.70
2019-03-23T21:13:35.338Z,10.70
2019-03-23T21:16:23.634Z,10.70
2019-03-23T21:19:12.998Z,10.70
2019-03-23T21:22:01.278Z,10.70
2019-03-23T21:24:49.582Z,10.80
2019-03-23T21:27:38.162Z,10.80
2019-03-23T21:30:26.895Z,10.90
2019-03-23T21:33:15.217Z,10.90
2019-03-23T21:36:03.622Z,11.00
2019-03-23T21:38:51.934Z,10.90
2019-03-23T21:41:40.540Z,10.90
2019-03-23T21:47:23.290Z,10.90
2019-03-23T21:50:32.208Z,11.00
2019-03-23T21:53:20.531Z,10.90
2019-03-23T21:59:09.220Z,10.80
2019-03-23T22:01:49.748Z,10.90
2019-03-23T22:04:30.973Z,10.90
2019-03-23T22:07:11.579Z,10.80
2019-03-23T22:09:52.572Z,10.80
2019-03-23T22:12:33.736Z,10.80
2019-03-23T22:15:14.873Z,10.70
2019-03-23T22:17:55.271Z,10.60
2019-03-23T22:20:36.296Z,10.60
2019-03-23T22:23:17.277Z,10.60
2019-03-23T22:25:57.674Z,10.70
2019-03-23T22:28:38.398Z,10.80
2019-03-23T22:31:18.952Z,10.80
2019-03-23T22:33:59.637Z,10.80
2019-03-23T22:36:41.084Z,10.90
2019-03-23T22:39:21.549Z,10.90
2019-03-23T22:42:02.165Z,10.80
2019-03-23T22:44:52.013Z,10.80
2019-03-23T22:47:26.108Z,10.70
2019-03-23T22:50:07.387Z,10.70
2019-03-23T22:52:48.199Z,10.60
2019-03-23T22:55:29.162Z,10.50
2019-03-23T22:58:10.720Z,10.40
2019-03-23T23:00:51.271Z,10.30
2019-03-23T23:03:32.055Z,10.30
2019-03-23T23:08:55.871Z,10.10
2019-03-23T23:11:37.084Z,10.10
2019-03-23T23:14:17.735Z,10.10
2019-03-23T23:16:58.436Z,10.10
2019-03-23T23:19:39.204Z,10.10
2019-03-23T23:25:05.023Z,10.00
2019-03-23T23:27:45.812Z,9.90
2019-03-23T23:30:26.255Z,9.90
2019-03-23T23:32:55.598Z,9.90
2019-03-23T23:35:43.891Z,9.90
2019-03-23T23:38:32.446Z,9.70
2019-03-23T23:41:20.744Z,9.70
2019-03-23T23:44:09.399Z,9.60
2019-03-23T23:46:57.681Z,9.60
2019-03-23T23:49:45.968Z,9.50
2019-03-23T23:52:34.264Z,9.50
2019-03-23T23:55:22.916Z,9.50
2019-03-23T23:58:03.756Z,9.40
